sensor_id;sensor_type;location;lat;lon;timestamp;temperature;humidity
29577;DHT22;16509;53.862;10.672;2022-12-24T00:01:03;4.40;99.90
29577;DHT22;16509;53.862;10.672;2022-12-24T00:03:29;4.40;99.90
29577;DHT22;16509;53.862;10.672;2022-12-24T00:05:55;4.40;99.90
29577;DHT22;16509;53.862;10.672;2022-12-24T00:08:20;4.40;99.90
29577;DHT22;16509;53.862;10.672;2022-12-24T00:10:51;4.40;99.90
29577;DHT22;16509;53.862;10.672;2022-12-24T00:13:17;4.30;99.90
29577;DHT22;16509;53.862;10.672;2022-12-24T00:15:43;4.40;99.90
29577;DHT22;16509;53.862;10.672;2022-12-24T00:18:08;4.40;99.90
29577;DHT22;16509;53.862;10.672;2022-12-24T00:20:34;4.40;99.90
29577;DHT22;16509;53.862;10.672;2022-12-24T00:23:00;4.40;99.90
29577;DHT22;16509;53.862;10.672;2022-12-24T00:25:25;4.40;99.90
29577;DHT22;16509;53.862;10.672;2022-12-24T00:27:51;4.40;99.90
29577;DHT22;16509;53.862;10.672;2022-12-24T00:30:16;4.50;99.90
29577;DHT22;16509;53.862;10.672;2022-12-24T00:32:42;4.40;99.90
29577;DHT22;16509;53.862;10.672;2022-12-24T00:35:08;4.40;99.90
29577;DHT22;16509;53.862;10.672;2022-12-24T00:37:33;4.40;99.90
29577;DHT22;16509;53.862;10.672;2022-12-24T00:39:59;4.40;99.90
29577;DHT22;16509;53.862;10.672;2022-12-24T00:42:24;4.40;99.90
29577;DHT22;16509;53.862;10.672;2022-12-24T00:44:50;4.40;99.90
29577;DHT22;16509;53.862;10.672;2022-12-24T00:47:16;4.40;99.90
29577;DHT22;16509;53.862;10.672;2022-12-24T00:49:41;4.40;99.90
29577;DHT22;16509;53.862;10.672;2022-12-24T00:52:07;4.40;99.90
29577;DHT22;16509;53.862;10.672;2022-12-24T00:54:32;4.40;99.90
29577;DHT22;16509;53.862;10.672;2022-12-24T00:56:58;4.40;99.90
29577;DHT22;16509;53.862;10.672;2022-12-24T00:59:23;4.30;99.90
29577;DHT22;16509;53.862;10.672;2022-12-24T01:01:49;4.40;99.90
29577;DHT22;16509;53.862;10.672;2022-12-24T01:04:15;4.40;99.90
29577;DHT22;16509;53.862;10.672;2022-12-24T01:06:59;4.30;99.90
29577;DHT22;16509;53.862;10.672;2022-12-24T01:09:25;4.30;99.90
29577;DHT22;16509;53.862;10.672;2022-12-24T01:11:50;4.30;99.90
29577;DHT22;16509;53.862;10.672;2022-12-24T01:14:16;4.30;99.90
29577;DHT22;16509;53.862;10.672;2022-12-24T01:16:41;4.40;99.90
29577;DHT22;16509;53.862;10.672;2022-12-24T01:19:07;4.30;99.90
29577;DHT22;16509;53.862;10.672;2022-12-24T01:21:32;4.30;99.90
29577;DHT22;16509;53.862;10.672;2022-12-24T01:23:58;4.30;99.90
29577;DHT22;16509;53.862;10.672;2022-12-24T01:26:23;4.30;99.90
29577;DHT22;16509;53.862;10.672;2022-12-24T01:28:49;4.30;99.90
29577;DHT22;16509;53.862;10.672;2022-12-24T01:31:18;4.30;99.90
29577;DHT22;16509;53.862;10.672;2022-12-24T01:33:44;4.30;99.90
29577;DHT22;16509;53.862;10.672;2022-12-24T01:36:11;4.20;99.90
29577;DHT22;16509;53.862;10.672;2022-12-24T01:38:37;4.20;99.90
29577;DHT22;16509;53.862;10.672;2022-12-24T01:41:02;4.20;99.90
29577;DHT22;16509;53.862;10.672;2022-12-24T01:43:47;4.20;99.90
29577;DHT22;16509;53.862;10.672;2022-12-24T01:46:17;4.20;99.90
29577;DHT22;16509;53.862;10.672;2022-12-24T01:51:34;4.20;99.90
29577;DHT22;16509;53.862;10.672;2022-12-24T01:54:13;4.20;99.90
29577;DHT22;16509;53.862;10.672;2022-12-24T01:56:45;4.20;99.90
29577;DHT22;16509;53.862;10.672;2022-12-24T01:59:15;4.20;99.90
29577;DHT22;16509;53.862;10.672;2022-12-24T02:01:43;4.20;99.90
29577;DHT22;16509;53.862;10.672;2022-12-24T02:04:24;4.20;99.90
29577;DHT22;16509;53.862;10.672;2022-12-24T02:06:50;4.10;99.90
29577;DHT22;16509;53.862;10.672;2022-12-24T02:09:16;4.20;99.90
29577;DHT22;16509;53.862;10.672;2022-12-24T02:11:43;4.10;99.90
29577;DHT22;16509;53.862;10.672;2022-12-24T02:14:09;4.20;99.90
29577;DHT22;16509;53.862;10.672;2022-12-24T02:23:07;4.20;99.90
29577;DHT22;16509;53.862;10.672;2022-12-24T02:31:22;4.20;99.90
29577;DHT22;16509;53.862;10.672;2022-12-24T02:34:05;4.10;99.90
29577;DHT22;16509;53.862;10.672;2022-12-24T02:36:41;4.10;99.90
29577;DHT22;16509;53.862;10.672;2022-12-24T02:39:17;4.10;99.90
29577;DHT22;16509;53.862;10.672;2022-12-24T02:41:48;4.10;99.90
29577;DHT22;16509;53.862;10.672;2022-12-24T02:44:40;4.10;99.90
29577;DHT22;16509;53.862;10.672;2022-12-24T02:47:07;4.90;99.90
29577;DHT22;16509;53.862;10.672;2022-12-24T02:49:35;4.20;99.90
29577;DHT22;16509;53.862;10.672;2022-12-24T02:52:00;4.20;99.90
29577;DHT22;16509;53.862;10.672;2022-12-24T02:54:26;4.20;99.90
29577;DHT22;16509;53.862;10.672;2022-12-24T03:00:17;4.20;99.90
29577;DHT22;16509;53.862;10.672;2022-12-24T03:02:52;4.30;99.90
29577;DHT22;16509;53.862;10.672;2022-12-24T03:05:31;4.30;99.90
29577;DHT22;16509;53.862;10.672;2022-12-24T03:10:48;4.30;99.90
29577;DHT22;16509;53.862;10.672;2022-12-24T03:13:17;4.30;99.90
29577;DHT22;16509;53.862;10.672;2022-12-24T03:15:45;4.30;99.90
29577;DHT22;16509;53.862;10.672;2022-12-24T03:18:14;4.20;99.90
29577;DHT22;16509;53.862;10.672;2022-12-24T03:20:47;4.20;99.90
29577;DHT22;16509;53.862;10.672;2022-12-24T03:23:15;4.20;99.90
29577;DHT22;16509;53.862;10.672;2022-12-24T03:25:42;4.30;99.90
29577;DHT22;16509;53.862;10.672;2022-12-24T03:28:11;4.20;99.90
29577;DHT22;16509;53.862;10.672;2022-12-24T03:30:42;4.20;99.90
29577;DHT22;16509;53.862;10.672;2022-12-24T03:33:09;4.20;99.90
29577;DHT22;16509;53.862;10.672;2022-12-24T03:35:34;4.20;99.90
29577;DHT22;16509;53.862;10.672;2022-12-24T03:38:00;4.20;99.90
29577;DHT22;16509;53.862;10.672;2022-12-24T03:40:26;4.20;99.90
29577;DHT22;16509;53.862;10.672;2022-12-24T03:42:51;4.20;99.90
29577;DHT22;16509;53.862;10.672;2022-12-24T03:45:17;4.20;99.90
29577;DHT22;16509;53.862;10.672;2022-12-24T03:47:43;4.20;99.90
29577;DHT22;16509;53.862;10.672;2022-12-24T03:50:09;4.20;99.90
29577;DHT22;16509;53.862;10.672;2022-12-24T03:52:34;4.20;99.90
29577;DHT22;16509;53.862;10.672;2022-12-24T03:55:00;4.10;99.90
29577;DHT22;16509;53.862;10.672;2022-12-24T03:57:25;4.20;99.90
29577;DHT22;16509;53.862;10.672;2022-12-24T03:59:51;4.20;99.90
29577;DHT22;16509;53.862;10.672;2022-12-24T04:02:17;4.20;99.90
29577;DHT22;16509;53.862;10.672;2022-12-24T04:04:42;4.10;99.90
29577;DHT22;16509;53.862;10.672;2022-12-24T04:07:08;4.10;99.90
29577;DHT22;16509;53.862;10.672;2022-12-24T04:09:34;4.10;99.90
29577;DHT22;16509;53.862;10.672;2022-12-24T04:12:00;4.10;99.90
29577;DHT22;16509;53.862;10.672;2022-12-24T04:14:25;4.20;99.90
29577;DHT22;16509;53.862;10.672;2022-12-24T04:16:51;4.20;99.90
29577;DHT22;16509;53.862;10.672;2022-12-24T04:19:16;4.20;99.90
29577;DHT22;16509;53.862;10.672;2022-12-24T04:21:42;4.20;99.90
29577;DHT22;16509;53.862;10.672;2022-12-24T04:24:08;4.20;99.90
29577;DHT22;16509;53.862;10.672;2022-12-24T04:26:33;4.20;99.90
29577;DHT22;16509;53.862;10.672;2022-12-24T04:28:59;4.20;99.90
29577;DHT22;16509;53.862;10.672;2022-12-24T04:31:24;4.20;99.90
29577;DHT22;16509;53.862;10.672;2022-12-24T04:33:51;4.20;99.90
29577;DHT22;16509;53.862;10.672;2022-12-24T04:36:19;4.10;99.90
29577;DHT22;16509;53.862;10.672;2022-12-24T04:38:46;4.10;99.90
29577;DHT22;16509;53.862;10.672;2022-12-24T04:41:15;4.70;99.90
29577;DHT22;16509;53.862;10.672;2022-12-24T04:43:41;4.20;99.90
29577;DHT22;16509;53.862;10.672;2022-12-24T04:46:15;4.10;99.90
29577;DHT22;16509;53.862;10.672;2022-12-24T04:48:46;4.20;99.90
29577;DHT22;16509;53.862;10.672;2022-12-24T04:51:13;4.20;99.90
29577;DHT22;16509;53.862;10.672;2022-12-24T04:53:39;4.20;99.90
29577;DHT22;16509;53.862;10.672;2022-12-24T04:56:16;4.20;99.90
29577;DHT22;16509;53.862;10.672;2022-12-24T04:58:42;4.40;99.90
29577;DHT22;16509;53.862;10.672;2022-12-24T05:01:12;4.20;99.90
29577;DHT22;16509;53.862;10.672;2022-12-24T05:03:38;4.20;99.90
29577;DHT22;16509;53.862;10.672;2022-12-24T05:06:09;4.20;99.90
29577;DHT22;16509;53.862;10.672;2022-12-24T05:08:35;4.20;99.90
29577;DHT22;16509;53.862;10.672;2022-12-24T05:11:01;4.40;99.90
29577;DHT22;16509;53.862;10.672;2022-12-24T05:13:28;4.20;99.90
29577;DHT22;16509;53.862;10.672;2022-12-24T05:15:54;4.20;99.90
29577;DHT22;16509;53.862;10.672;2022-12-24T05:18:20;4.20;99.90
29577;DHT22;16509;53.862;10.672;2022-12-24T05:20:46;4.20;99.90
29577;DHT22;16509;53.862;10.672;2022-12-24T05:23:16;4.20;99.90
29577;DHT22;16509;53.862;10.672;2022-12-24T05:26:02;4.20;99.90
29577;DHT22;16509;53.862;10.672;2022-12-24T05:28:50;4.20;99.90
29577;DHT22;16509;53.862;10.672;2022-12-24T05:31:16;4.20;99.90
29577;DHT22;16509;53.862;10.672;2022-12-24T05:33:41;4.20;99.90
29577;DHT22;16509;53.862;10.672;2022-12-24T05:36:07;4.10;99.90
29577;DHT22;16509;53.862;10.672;2022-12-24T05:38:36;4.20;99.90
29577;DHT22;16509;53.862;10.672;2022-12-24T05:41:02;4.20;99.90
29577;DHT22;16509;53.862;10.672;2022-12-24T05:43:28;4.10;99.90
29577;DHT22;16509;53.862;10.672;2022-12-24T05:46:02;4.10;99.90
29577;DHT22;16509;53.862;10.672;2022-12-24T05:48:28;4.10;99.90
29577;DHT22;16509;53.862;10.672;2022-12-24T05:50:54;4.10;99.90
29577;DHT22;16509;53.862;10.672;2022-12-24T05:53:20;4.10;99.90
29577;DHT22;16509;53.862;10.672;2022-12-24T05:55:46;4.00;99.90
29577;DHT22;16509;53.862;10.672;2022-12-24T05:58:12;4.00;99.90
29577;DHT22;16509;53.862;10.672;2022-12-24T06:00:38;4.10;99.90
29577;DHT22;16509;53.862;10.672;2022-12-24T06:03:03;4.10;99.90
29577;DHT22;16509;53.862;10.672;2022-12-24T06:05:29;4.00;99.90
29577;DHT22;16509;53.862;10.672;2022-12-24T06:07:54;4.00;99.90
29577;DHT22;16509;53.862;10.672;2022-12-24T06:10:20;4.00;99.90
29577;DHT22;16509;53.862;10.672;2022-12-24T06:12:46;4.00;99.90
29577;DHT22;16509;53.862;10.672;2022-12-24T06:15:11;4.10;99.90
29577;DHT22;16509;53.862;10.672;2022-12-24T06:17:37;4.00;99.90
29577;DHT22;16509;53.862;10.672;2022-12-24T06:20:03;3.90;99.90
29577;DHT22;16509;53.862;10.672;2022-12-24T06:22:28;4.00;99.90
29577;DHT22;16509;53.862;10.672;2022-12-24T06:24:54;4.00;99.90
29577;DHT22;16509;53.862;10.672;2022-12-24T06:27:20;4.00;99.90
29577;DHT22;16509;53.862;10.672;2022-12-24T06:29:45;4.00;99.90
29577;DHT22;16509;53.862;10.672;2022-12-24T06:32:11;4.00;99.90
29577;DHT22;16509;53.862;10.672;2022-12-24T06:34:36;3.90;99.90
29577;DHT22;16509;53.862;10.672;2022-12-24T06:37:02;3.90;99.90
29577;DHT22;16509;53.862;10.672;2022-12-24T06:39:28;3.80;99.90
29577;DHT22;16509;53.862;10.672;2022-12-24T06:41:53;3.90;99.90
29577;DHT22;16509;53.862;10.672;2022-12-24T06:44:19;3.90;99.90
29577;DHT22;16509;53.862;10.672;2022-12-24T06:46:45;3.90;99.90
29577;DHT22;16509;53.862;10.672;2022-12-24T06:49:11;3.90;99.90
29577;DHT22;16509;53.862;10.672;2022-12-24T06:51:37;3.90;99.90
29577;DHT22;16509;53.862;10.672;2022-12-24T06:54:02;3.90;99.90
29577;DHT22;16509;53.862;10.672;2022-12-24T06:56:28;3.90;99.90
29577;DHT22;16509;53.862;10.672;2022-12-24T06:58:53;3.90;99.90
29577;DHT22;16509;53.862;10.672;2022-12-24T07:01:19;3.90;99.90
29577;DHT22;16509;53.862;10.672;2022-12-24T07:03:45;3.90;99.90
29577;DHT22;16509;53.862;10.672;2022-12-24T07:06:29;3.90;99.90
29577;DHT22;16509;53.862;10.672;2022-12-24T07:08:55;3.90;99.90
29577;DHT22;16509;53.862;10.672;2022-12-24T07:11:22;3.90;99.90
29577;DHT22;16509;53.862;10.672;2022-12-24T07:13:47;3.90;99.90
29577;DHT22;16509;53.862;10.672;2022-12-24T07:16:13;3.90;99.90
29577;DHT22;16509;53.862;10.672;2022-12-24T07:18:39;3.90;99.90
29577;DHT22;16509;53.862;10.672;2022-12-24T07:21:05;3.90;99.90
29577;DHT22;16509;53.862;10.672;2022-12-24T07:23:32;4.00;99.90
29577;DHT22;16509;53.862;10.672;2022-12-24T07:26:01;4.10;99.90
29577;DHT22;16509;53.862;10.672;2022-12-24T07:28:28;4.10;99.90
29577;DHT22;16509;53.862;10.672;2022-12-24T07:30:54;4.10;99.90
29577;DHT22;16509;53.862;10.672;2022-12-24T07:33:20;4.10;99.90
29577;DHT22;16509;53.862;10.672;2022-12-24T07:35:46;4.20;99.90
29577;DHT22;16509;53.862;10.672;2022-12-24T07:38:11;4.10;99.90
29577;DHT22;16509;53.862;10.672;2022-12-24T07:40:37;4.20;99.90
29577;DHT22;16509;53.862;10.672;2022-12-24T07:43:02;4.20;99.90
29577;DHT22;16509;53.862;10.672;2022-12-24T07:45:28;4.20;99.90
29577;DHT22;16509;53.862;10.672;2022-12-24T07:47:53;4.20;99.90
29577;DHT22;16509;53.862;10.672;2022-12-24T07:50:19;4.20;99.90
29577;DHT22;16509;53.862;10.672;2022-12-24T07:52:44;4.20;99.90
29577;DHT22;16509;53.862;10.672;2022-12-24T07:55:10;4.30;99.90
29577;DHT22;16509;53.862;10.672;2022-12-24T07:57:36;4.20;99.90
29577;DHT22;16509;53.862;10.672;2022-12-24T08:00:02;4.20;99.90
29577;DHT22;16509;53.862;10.672;2022-12-24T08:02:28;4.10;99.90
29577;DHT22;16509;53.862;10.672;2022-12-24T08:04:54;4.10;99.90
29577;DHT22;16509;53.862;10.672;2022-12-24T08:07:19;4.10;99.90
29577;DHT22;16509;53.862;10.672;2022-12-24T08:09:45;4.10;99.90
29577;DHT22;16509;53.862;10.672;2022-12-24T08:12:10;4.10;99.90
29577;DHT22;16509;53.862;10.672;2022-12-24T08:14:36;4.10;99.90
29577;DHT22;16509;53.862;10.672;2022-12-24T08:17:02;4.10;99.90
29577;DHT22;16509;53.862;10.672;2022-12-24T08:19:27;4.10;99.90
29577;DHT22;16509;53.862;10.672;2022-12-24T08:21:53;4.10;99.90
29577;DHT22;16509;53.862;10.672;2022-12-24T08:24:18;4.10;99.90
29577;DHT22;16509;53.862;10.672;2022-12-24T08:26:45;4.20;99.90
29577;DHT22;16509;53.862;10.672;2022-12-24T08:29:11;4.20;99.90
29577;DHT22;16509;53.862;10.672;2022-12-24T08:31:37;4.20;99.90
29577;DHT22;16509;53.862;10.672;2022-12-24T08:34:03;4.20;99.90
29577;DHT22;16509;53.862;10.672;2022-12-24T08:36:28;4.20;99.90
29577;DHT22;16509;53.862;10.672;2022-12-24T08:38:54;4.20;99.90
29577;DHT22;16509;53.862;10.672;2022-12-24T08:41:23;4.20;99.90
29577;DHT22;16509;53.862;10.672;2022-12-24T08:44:01;4.20;99.90
29577;DHT22;16509;53.862;10.672;2022-12-24T08:46:29;4.20;99.90
29577;DHT22;16509;53.862;10.672;2022-12-24T08:49:00;4.20;99.90
29577;DHT22;16509;53.862;10.672;2022-12-24T08:51:44;4.20;99.90
29577;DHT22;16509;53.862;10.672;2022-12-24T08:54:12;4.30;99.90
29577;DHT22;16509;53.862;10.672;2022-12-24T08:56:38;4.10;99.90
29577;DHT22;16509;53.862;10.672;2022-12-24T08:59:03;4.20;99.90
29577;DHT22;16509;53.862;10.672;2022-12-24T09:01:29;4.50;99.90
29577;DHT22;16509;53.862;10.672;2022-12-24T09:03:56;4.20;99.90
29577;DHT22;16509;53.862;10.672;2022-12-24T09:06:21;4.20;99.90
29577;DHT22;16509;53.862;10.672;2022-12-24T09:08:47;4.20;99.90
29577;DHT22;16509;53.862;10.672;2022-12-24T09:11:15;4.20;99.90
29577;DHT22;16509;53.862;10.672;2022-12-24T09:13:42;4.20;99.90
29577;DHT22;16509;53.862;10.672;2022-12-24T09:16:09;4.20;99.90
29577;DHT22;16509;53.862;10.672;2022-12-24T09:18:35;4.20;99.90
29577;DHT22;16509;53.862;10.672;2022-12-24T09:21:04;4.70;99.90
29577;DHT22;16509;53.862;10.672;2022-12-24T09:23:30;4.20;99.90
29577;DHT22;16509;53.862;10.672;2022-12-24T09:25:58;4.20;99.90
29577;DHT22;16509;53.862;10.672;2022-12-24T09:28:23;4.20;99.90
29577;DHT22;16509;53.862;10.672;2022-12-24T09:31:00;4.20;99.90
29577;DHT22;16509;53.862;10.672;2022-12-24T09:33:28;4.20;99.90
29577;DHT22;16509;53.862;10.672;2022-12-24T09:35:54;4.20;99.90
29577;DHT22;16509;53.862;10.672;2022-12-24T09:38:20;4.20;99.90
29577;DHT22;16509;53.862;10.672;2022-12-24T09:40:47;4.20;99.90
29577;DHT22;16509;53.862;10.672;2022-12-24T09:43:21;4.20;99.90
29577;DHT22;16509;53.862;10.672;2022-12-24T09:48:21;4.20;99.90
29577;DHT22;16509;53.862;10.672;2022-12-24T09:50:53;4.20;99.90
29577;DHT22;16509;53.862;10.672;2022-12-24T09:53:31;4.20;99.90
29577;DHT22;16509;53.862;10.672;2022-12-24T09:56:08;4.20;99.90
29577;DHT22;16509;53.862;10.672;2022-12-24T09:58:46;4.20;99.90
29577;DHT22;16509;53.862;10.672;2022-12-24T10:01:14;4.30;99.90
29577;DHT22;16509;53.862;10.672;2022-12-24T10:03:40;4.30;99.90
29577;DHT22;16509;53.862;10.672;2022-12-24T10:06:19;4.30;99.90
29577;DHT22;16509;53.862;10.672;2022-12-24T10:11:43;4.30;99.90
29577;DHT22;16509;53.862;10.672;2022-12-24T10:14:25;4.30;99.90
29577;DHT22;16509;53.862;10.672;2022-12-24T10:22:59;4.30;99.90
29577;DHT22;16509;53.862;10.672;2022-12-24T10:25:48;4.40;99.90
29577;DHT22;16509;53.862;10.672;2022-12-24T10:28:26;4.40;99.90
29577;DHT22;16509;53.862;10.672;2022-12-24T10:30:58;4.40;99.90
29577;DHT22;16509;53.862;10.672;2022-12-24T10:33:42;4.40;99.90
29577;DHT22;16509;53.862;10.672;2022-12-24T10:36:14;4.40;99.90
29577;DHT22;16509;53.862;10.672;2022-12-24T10:38:42;4.40;99.90
29577;DHT22;16509;53.862;10.672;2022-12-24T10:41:08;4.40;99.90
29577;DHT22;16509;53.862;10.672;2022-12-24T10:43:35;4.40;99.90
29577;DHT22;16509;53.862;10.672;2022-12-24T10:46:05;4.40;99.90
29577;DHT22;16509;53.862;10.672;2022-12-24T10:48:35;4.90;99.90
29577;DHT22;16509;53.862;10.672;2022-12-24T10:51:05;4.50;99.90
29577;DHT22;16509;53.862;10.672;2022-12-24T10:53:48;4.50;99.90
29577;DHT22;16509;53.862;10.672;2022-12-24T10:56:18;4.50;99.90
29577;DHT22;16509;53.862;10.672;2022-12-24T10:58:49;4.40;99.90
29577;DHT22;16509;53.862;10.672;2022-12-24T11:01:15;4.50;99.90
29577;DHT22;16509;53.862;10.672;2022-12-24T11:03:41;4.50;99.90
29577;DHT22;16509;53.862;10.672;2022-12-24T11:08:36;4.50;99.90
29577;DHT22;16509;53.862;10.672;2022-12-24T11:11:20;4.50;99.90
29577;DHT22;16509;53.862;10.672;2022-12-24T11:16:29;4.50;99.90
29577;DHT22;16509;53.862;10.672;2022-12-24T11:19:00;4.50;99.90
29577;DHT22;16509;53.862;10.672;2022-12-24T11:21:38;4.50;99.90
29577;DHT22;16509;53.862;10.672;2022-12-24T11:26:49;4.50;99.90
29577;DHT22;16509;53.862;10.672;2022-12-24T11:29:24;4.50;99.90
29577;DHT22;16509;53.862;10.672;2022-12-24T11:31:51;4.50;99.90
29577;DHT22;16509;53.862;10.672;2022-12-24T11:34:26;4.60;99.90
29577;DHT22;16509;53.862;10.672;2022-12-24T11:36:54;4.60;99.90
29577;DHT22;16509;53.862;10.672;2022-12-24T11:39:23;4.60;99.90
29577;DHT22;16509;53.862;10.672;2022-12-24T11:41:49;4.70;99.90
29577;DHT22;16509;53.862;10.672;2022-12-24T11:44:28;4.60;99.90
29577;DHT22;16509;53.862;10.672;2022-12-24T11:46:55;4.60;99.90
29577;DHT22;16509;53.862;10.672;2022-12-24T11:49:29;4.70;99.90
29577;DHT22;16509;53.862;10.672;2022-12-24T11:52:22;4.70;99.90
29577;DHT22;16509;53.862;10.672;2022-12-24T11:55:21;4.70;99.90
29577;DHT22;16509;53.862;10.672;2022-12-24T11:58:49;4.70;99.90
29577;DHT22;16509;53.862;10.672;2022-12-24T12:00:50;4.90;99.90
29577;DHT22;16509;53.862;10.672;2022-12-24T12:05:48;4.60;99.90
29577;DHT22;16509;53.862;10.672;2022-12-24T12:08:17;4.70;99.90
29577;DHT22;16509;53.862;10.672;2022-12-24T12:10:45;4.70;99.90
29577;DHT22;16509;53.862;10.672;2022-12-24T12:15:52;4.50;99.90
29577;DHT22;16509;53.862;10.672;2022-12-24T12:18:33;4.50;99.90
29577;DHT22;16509;53.862;10.672;2022-12-24T12:21:03;4.80;99.90
29577;DHT22;16509;53.862;10.672;2022-12-24T12:23:36;4.70;99.90
29577;DHT22;16509;53.862;10.672;2022-12-24T12:26:25;4.70;99.90
29577;DHT22;16509;53.862;10.672;2022-12-24T12:31:48;4.70;99.90
29577;DHT22;16509;53.862;10.672;2022-12-24T12:34:24;4.70;99.90
29577;DHT22;16509;53.862;10.672;2022-12-24T12:37:03;4.70;99.90
29577;DHT22;16509;53.862;10.672;2022-12-24T12:39:30;4.80;99.90
29577;DHT22;16509;53.862;10.672;2022-12-24T12:58:31;4.70;99.90
29577;DHT22;16509;53.862;10.672;2022-12-24T13:01:14;4.60;99.90
29577;DHT22;16509;53.862;10.672;2022-12-24T13:12:49;4.60;99.90
29577;DHT22;16509;53.862;10.672;2022-12-24T13:18:13;4.70;99.90
29577;DHT22;16509;53.862;10.672;2022-12-24T13:20:45;4.70;99.90
29577;DHT22;16509;53.862;10.672;2022-12-24T13:23:23;4.70;99.90
29577;DHT22;16509;53.862;10.672;2022-12-24T13:25:52;4.70;99.90
29577;DHT22;16509;53.862;10.672;2022-12-24T13:36:03;4.80;99.90
29577;DHT22;16509;53.862;10.672;2022-12-24T13:38:33;4.80;99.90
29577;DHT22;16509;53.862;10.672;2022-12-24T13:49:20;4.80;99.90
29577;DHT22;16509;53.862;10.672;2022-12-24T13:51:50;4.80;99.90
29577;DHT22;16509;53.862;10.672;2022-12-24T13:54:19;4.90;99.90
29577;DHT22;16509;53.862;10.672;2022-12-24T13:56:46;4.90;99.90
29577;DHT22;16509;53.862;10.672;2022-12-24T13:59:19;4.90;99.90
29577;DHT22;16509;53.862;10.672;2022-12-24T14:01:47;4.90;99.90
29577;DHT22;16509;53.862;10.672;2022-12-24T14:04:25;4.90;99.90
29577;DHT22;16509;53.862;10.672;2022-12-24T14:06:53;5.00;99.90
29577;DHT22;16509;53.862;10.672;2022-12-24T14:09:21;5.00;99.90
29577;DHT22;16509;53.862;10.672;2022-12-24T14:14:40;4.90;99.90
29577;DHT22;16509;53.862;10.672;2022-12-24T14:19:46;5.00;99.90
29577;DHT22;16509;53.862;10.672;2022-12-24T14:22:24;5.00;99.90
29577;DHT22;16509;53.862;10.672;2022-12-24T14:25:01;5.00;99.90
29577;DHT22;16509;53.862;10.672;2022-12-24T14:27:43;5.10;99.90
29577;DHT22;16509;53.862;10.672;2022-12-24T14:30:26;5.10;99.90
29577;DHT22;16509;53.862;10.672;2022-12-24T14:32:53;5.10;99.90
29577;DHT22;16509;53.862;10.672;2022-12-24T14:35:20;5.00;99.90
29577;DHT22;16509;53.862;10.672;2022-12-24T14:38:05;5.00;99.90
29577;DHT22;16509;53.862;10.672;2022-12-24T14:40:34;5.00;99.90
29577;DHT22;16509;53.862;10.672;2022-12-24T14:46:11;5.10;99.90
29577;DHT22;16509;53.862;10.672;2022-12-24T14:48:44;5.00;99.90
29577;DHT22;16509;53.862;10.672;2022-12-24T14:56:38;5.00;99.90
29577;DHT22;16509;53.862;10.672;2022-12-24T14:59:19;5.00;99.90
29577;DHT22;16509;53.862;10.672;2022-12-24T15:01:45;5.00;99.90
29577;DHT22;16509;53.862;10.672;2022-12-24T15:06:49;5.00;99.90
29577;DHT22;16509;53.862;10.672;2022-12-24T15:09:28;5.00;99.90
29577;DHT22;16509;53.862;10.672;2022-12-24T15:11:59;5.10;99.90
29577;DHT22;16509;53.862;10.672;2022-12-24T15:14:26;5.10;99.90
29577;DHT22;16509;53.862;10.672;2022-12-24T15:17:02;5.10;99.90
29577;DHT22;16509;53.862;10.672;2022-12-24T15:19:36;5.30;99.90
29577;DHT22;16509;53.862;10.672;2022-12-24T15:22:09;5.10;99.90
29577;DHT22;16509;53.862;10.672;2022-12-24T15:24:43;5.10;99.90
29577;DHT22;16509;53.862;10.672;2022-12-24T15:27:24;5.00;99.90
29577;DHT22;16509;53.862;10.672;2022-12-24T15:29:53;5.00;99.90
29577;DHT22;16509;53.862;10.672;2022-12-24T15:32:20;5.00;99.90
29577;DHT22;16509;53.862;10.672;2022-12-24T15:34:52;5.10;99.90
29577;DHT22;16509;53.862;10.672;2022-12-24T15:39:57;5.00;99.90
29577;DHT22;16509;53.862;10.672;2022-12-24T15:43:18;5.10;99.90
29577;DHT22;16509;53.862;10.672;2022-12-24T15:45:44;5.20;99.90
29577;DHT22;16509;53.862;10.672;2022-12-24T15:48:26;5.10;99.90
29577;DHT22;16509;53.862;10.672;2022-12-24T15:51:01;5.20;99.90
29577;DHT22;16509;53.862;10.672;2022-12-24T15:53:33;5.10;99.90
29577;DHT22;16509;53.862;10.672;2022-12-24T15:56:10;5.10;99.90
29577;DHT22;16509;53.862;10.672;2022-12-24T15:58:43;5.10;99.90
29577;DHT22;16509;53.862;10.672;2022-12-24T16:03:38;5.10;99.90
29577;DHT22;16509;53.862;10.672;2022-12-24T16:06:08;5.10;99.90
29577;DHT22;16509;53.862;10.672;2022-12-24T16:08:37;5.00;99.90
29577;DHT22;16509;53.862;10.672;2022-12-24T16:16:18;5.10;99.90
29577;DHT22;16509;53.862;10.672;2022-12-24T16:21:39;5.10;99.90
29577;DHT22;16509;53.862;10.672;2022-12-24T16:24:16;5.10;99.90
29577;DHT22;16509;53.862;10.672;2022-12-24T16:26:43;5.20;99.90
29577;DHT22;16509;53.862;10.672;2022-12-24T16:29:10;6.00;99.90
29577;DHT22;16509;53.862;10.672;2022-12-24T16:31:43;5.20;99.90
29577;DHT22;16509;53.862;10.672;2022-12-24T16:34:11;5.10;99.90
29577;DHT22;16509;53.862;10.672;2022-12-24T16:36:39;5.10;99.90
29577;DHT22;16509;53.862;10.672;2022-12-24T16:39:11;5.10;99.90
29577;DHT22;16509;53.862;10.672;2022-12-24T16:44:35;5.20;99.90
29577;DHT22;16509;53.862;10.672;2022-12-24T16:47:01;5.20;99.90
29577;DHT22;16509;53.862;10.672;2022-12-24T16:49:27;5.20;99.90
29577;DHT22;16509;53.862;10.672;2022-12-24T16:51:53;5.20;99.90
29577;DHT22;16509;53.862;10.672;2022-12-24T16:54:19;5.30;99.90
29577;DHT22;16509;53.862;10.672;2022-12-24T16:56:44;5.20;99.90
29577;DHT22;16509;53.862;10.672;2022-12-24T16:59:21;5.30;99.90
29577;DHT22;16509;53.862;10.672;2022-12-24T17:01:48;5.30;99.90
29577;DHT22;16509;53.862;10.672;2022-12-24T17:04:14;5.20;99.90
29577;DHT22;16509;53.862;10.672;2022-12-24T17:06:40;5.30;99.90
29577;DHT22;16509;53.862;10.672;2022-12-24T17:09:07;4.50;99.90
29577;DHT22;16509;53.862;10.672;2022-12-24T17:11:34;5.40;99.90
29577;DHT22;16509;53.862;10.672;2022-12-24T17:13:59;5.40;99.90
29577;DHT22;16509;53.862;10.672;2022-12-24T17:16:25;5.30;99.90
29577;DHT22;16509;53.862;10.672;2022-12-24T17:18:51;5.30;99.90
29577;DHT22;16509;53.862;10.672;2022-12-24T17:21:16;5.40;99.90
29577;DHT22;16509;53.862;10.672;2022-12-24T17:23:43;5.40;99.90
29577;DHT22;16509;53.862;10.672;2022-12-24T17:26:12;6.90;99.90
29577;DHT22;16509;53.862;10.672;2022-12-24T17:28:38;5.40;99.90
29577;DHT22;16509;53.862;10.672;2022-12-24T17:31:12;5.40;99.90
29577;DHT22;16509;53.862;10.672;2022-12-24T17:33:38;5.50;99.90
29577;DHT22;16509;53.862;10.672;2022-12-24T17:36:04;5.50;99.90
29577;DHT22;16509;53.862;10.672;2022-12-24T17:38:31;5.50;99.90
29577;DHT22;16509;53.862;10.672;2022-12-24T17:41:07;5.50;99.90
29577;DHT22;16509;53.862;10.672;2022-12-24T17:43:34;5.50;99.90
29577;DHT22;16509;53.862;10.672;2022-12-24T17:46:05;5.50;99.90
29577;DHT22;16509;53.862;10.672;2022-12-24T17:48:31;5.50;99.90